Wednesday, August 24, 2016
05:05 UTC
  |  Log In   |  Register Free
Airport Search:

Alpena County Regional Airport
(KAPN)

FAA data valid effective May 26 2016 - Jul 21 2016 (unless otherwise noted).

 
 
 
 
 
 
 
 
 
 
 
 
 
 
Current Aviation Weather for KAPN

Weather Summary


The most recent METAR observation for APN was updated at: 12:54 UTC
METAR for APN is not available. Closest METAR is for
METAR

METAR KAPN 240454Z 20005KT 10SM CLR 19/14 A3011 RMK AO2 SLP193 T01940144 403060150

METAR KAPN 240354Z 19004KT 10SM CLR 21/14 A3013 RMK AO2 SLP199 T02060144

METAR KAPN 240254Z 20007KT 10SM CLR 22/14 A3014 RMK AO2 SLP205 T02220144 50006

METAR KPZQ 240455Z 19004KT 10SM CLR 19/15 A3011 RMK AO2 T01910145

TAF for APN is not available.
TAF

KAPN - TAF KAPN 232320Z 2400/2424 20007KT P6SM SCT250

KAPN - FM241500 17011G17KT P6SM FEW040

KAPN - FM241800 18012G17KT P6SM -SHRA BKN040 OVC150

KAPN - FM242200 19008KT P6SM -SHRA BKN040 OVC150 =

GlobalAir.com is loading additional information.
 Current Weather at APN
69.0 F° (20.6 C°)

South winds at 4.6 mph
Pressure:
30.13 in
Humidity:
68%
Wind:
South at 4.6 mph
Dew Point:
57.9 F° (14.4 C°)
Visibility:
10.00 mi
APN NOAA Radar




Find All Airport Services Find A Hotel Find A Rental Car Find A Golf Course Find A Restaurant $100 Hamburger



Airport Weather Forecast for KAPN

Translated METAR for KAPN (0454 UTC)
METAR:
KAPN 240454Z AUTO Alpena County Regional, Alpena, MI (KAPN). Aug 24, 0454Z, Automated. Wind from 200° at 5 knots, 10 statute miles visibility, Clear Skies, Temperature 19°C, Dewpoint 14°C, Altimeter is 30.11. Remarks: automated station with precipitation discriminator sea level pressure 1019.3 hectopascals hourly temp 19.4°C dewpoint 14.4°C 24-hour max temp 30.6°C 24-hour min temp 15.0°C
Conditions at:
KAPN (Alpena County Rgnl, MI) observed 0454 UTC 24 August 2016
Temperature:
69.0 F° (20.6 C°)
Dewpoint:
not reported - refer to area weather report
Pressure:
30.13 Hg
Winds:
not reported
Visibility:
10.00
Ceiling:
at least 12,000 feet AGL
Clouds:
not reported - refer to area weather report
Remarks:
site is un-manned

Translated TAF for TAF for APN is not available. Refer to local area forecast.
FBO's on the Field
FBO Company Facility Photos Services Transportation Aviation Fuel Prices: Prices include tax
Catering Weather Repair Courtesy Rental Type 100LL JetA JetA+ MOGAS 8087
 
Aviation Express Inc.

Currently rated 5 by 1 person
FS:Shell
Last Updated: Aug-18
Login to update fuel prices
SS:
Contact Aviation Express Inc.More FBO Information
 
Aviation North

This FBO has not yet been rated
FS:Avfuel
Last Updated: Jul-21
Login to update fuel prices
SS:
Contact Aviation NorthMore FBO Information
 
Add another FBO Facility Photos Catering Weather Repair Courtesy Rental Type 100LL JetA JetA+ MOGAS 8087
Services Transportation Aviation Fuel Prices: Prices include tax


model-print
model-print
model-print
model-print